Time;durP1;ratioP1;P1;durP2;ratioP2;P2;SDS_P1;SDS_P2;PMS_P1;PMS_P2;Temp;Humidity;BMP_temperature;BMP_pressure;BME280_temperature;BME280_humidity;BME280_pressure;Samples;Min_cycle;Max_cycle;Signal;HPM_P1;HPM_P2
2023/06/25 08:39:05;;;;;;;3.25;2.08;;;27.00;48.90;;;;;;2529112;53;23425;-69
2023/06/25 08:41:37;;;;;;;3.45;2.12;;;27.10;49.30;;;;;;2533802;53;20940;-71
2023/06/25 08:44:03;;;;;;;3.17;1.90;;;27.20;49.10;;;;;;2525778;54;20955;-71
2023/06/25 08:46:31;;;;;;;4.65;2.00;;;27.30;49.20;;;;;;2537620;53;20996;-70
2023/06/25 08:48:57;;;;;;;3.00;1.90;;;27.40;49.50;;;;;;2526720;53;21017;-69
2023/06/25 08:51:31;;;;;;;3.90;2.20;;;27.50;48.70;;;;;;2473269;55;21049;-71
2023/06/25 08:54:17;;;;;;;3.47;1.92;;;27.60;49.00;;;;;;2489335;54;21605;-71
2023/06/25 08:56:44;;;;;;;2.95;1.77;;;27.70;48.50;;;;;;2467310;55;21066;-71
2023/06/25 08:59:11;;;;;;;3.35;1.92;;;27.80;48.50;;;;;;2525885;54;20934;-72
2023/06/25 09:01:37;;;;;;;3.40;1.95;;;27.90;48.40;;;;;;2502078;54;20993;-72
2023/06/25 09:04:05;;;;;;;3.20;2.10;;;28.00;48.00;;;;;;2500199;54;20958;-71
2023/06/25 09:06:39;;;;;;;3.15;1.98;;;28.10;47.50;;;;;;2516800;54;20909;-72
2023/06/25 09:09:13;;;;;;;5.35;2.10;;;28.20;47.00;;;;;;2524668;54;21563;-71
2023/06/25 09:11:44;;;;;;;3.20;2.05;;;28.30;46.90;;;;;;2296808;54;20973;-71
2023/06/25 09:14:12;;;;;;;3.60;2.12;;;28.40;46.80;;;;;;2306180;55;20942;-71
2023/06/25 09:16:54;;;;;;;3.50;2.17;;;28.50;46.90;;;;;;2510468;54;21482;-69
2023/06/25 09:19:22;;;;;;;3.62;2.20;;;28.60;46.10;;;;;;2523628;53;21000;-70
2023/06/25 09:21:49;;;;;;;3.10;1.85;;;28.60;46.60;;;;;;2525229;53;20975;-70
2023/06/25 09:24:17;;;;;;;3.78;2.25;;;28.70;46.40;;;;;;2570391;53;20995;-69
2023/06/25 09:26:54;;;;;;;3.25;2.08;;;28.80;45.90;;;;;;2550122;53;21013;-70
2023/06/25 09:29:25;;;;;;;3.70;2.22;;;28.80;45.50;;;;;;2554866;53;20934;-69
2023/06/25 09:31:57;;;;;;;3.22;2.08;;;28.90;45.50;;;;;;2550139;53;22151;-70
2023/06/25 09:34:26;;;;;;;3.47;2.00;;;29.00;45.10;;;;;;2561446;53;21038;-69
2023/06/25 09:36:56;;;;;;;4.53;1.87;;;29.10;45.40;;;;;;2563872;53;21512;-70
2023/06/25 09:39:25;;;;;;;3.12;1.83;;;29.10;45.40;;;;;;2556381;53;20992;-71
2023/06/25 09:41:52;;;;;;;3.40;2.17;;;29.20;45.00;;;;;;2564743;53;21009;-69
2023/06/25 09:44:21;;;;;;;3.28;1.98;;;29.30;45.10;;;;;;2584311;53;20985;-68
2023/06/25 09:46:48;;;;;;;3.20;2.00;;;29.30;44.70;;;;;;2500748;54;21701;-68
2023/06/25 09:49:16;;;;;;;3.37;1.80;;;29.40;44.60;;;;;;2539734;53;20973;-68
2023/06/25 09:53:06;;;;;;;2.75;1.73;;;29.50;44.30;;;;;;2300514;55;20943;-70
2023/06/25 09:55:36;;;;;;;3.33;1.80;;;29.60;44.00;;;;;;2533445;54;20955;-68
2023/06/25 09:58:05;;;;;;;;;;;29.70;44.00;;;;;;2302747;55;21621;-69
2023/06/25 10:00:34;;;;;;;2.50;1.30;;;29.80;44.00;;;;;;2476687;54;20066;-70
2023/06/25 10:03:04;;;;;;;3.25;1.70;;;29.80;43.90;;;;;;2513195;54;21054;-71
2023/06/25 10:05:32;;;;;;;5.07;1.75;;;29.90;43.60;;;;;;2527880;53;20951;-70
2023/06/25 10:07:58;;;;;;;4.07;1.92;;;29.90;43.30;;;;;;2534894;54;21704;-70
2023/06/25 10:10:29;;;;;;;3.40;2.10;;;30.00;43.10;;;;;;2555004;53;21097;-70
2023/06/25 10:12:57;;;;;;;3.50;2.08;;;30.10;42.90;;;;;;2300834;55;20929;-69
2023/06/25 10:15:28;;;;;;;2.87;1.67;;;30.10;42.70;;;;;;2523946;54;20963;-68
2023/06/25 10:18:04;;;;;;;3.25;1.75;;;30.20;42.40;;;;;;2287287;55;20963;-68
2023/06/25 10:20:35;;;;;;;3.00;1.62;;;30.20;42.10;;;;;;2517387;55;20951;-69
2023/06/25 10:23:53;;;;;;;2.95;1.65;;;30.30;42.20;;;;;;2303679;55;20957;-70
2023/06/25 10:26:25;;;;;;;3.22;1.90;;;30.40;41.90;;;;;;2509825;54;20893;-69
2023/06/25 10:28:56;;;;;;;3.00;1.75;;;30.40;41.60;;;;;;2535352;54;21095;-69
2023/06/25 10:31:22;;;;;;;3.85;1.80;;;30.50;41.50;;;;;;2312082;55;21499;-70
2023/06/25 10:33:49;;;;;;;3.25;1.90;;;30.50;41.80;;;;;;2295030;55;21024;-71
2023/06/25 10:36:23;;;;;;;2.95;1.77;;;30.60;41.90;;;;;;2515440;54;21795;-70
2023/06/25 10:38:50;;;;;;;3.45;2.03;;;30.70;41.20;;;;;;2549995;53;21708;-70
2023/06/25 10:41:25;;;;;;;2.90;1.70;;;30.70;41.50;;;;;;2297885;54;21062;-70
2023/06/25 10:43:52;;;;;;;3.90;2.10;;;30.70;41.10;;;;;;2538701;53;21788;-69
2023/06/25 10:46:31;;;;;;;3.30;1.92;;;30.80;41.20;;;;;;2537983;54;20930;-69
2023/06/25 10:49:03;;;;;;;3.53;2.20;;;30.80;40.60;;;;;;2554323;53;20972;-69
2023/06/25 10:51:33;;;;;;;3.17;1.87;;;30.90;40.70;;;;;;2306077;55;20959;-69
2023/06/25 10:54:00;;;;;;;3.25;1.87;;;31.00;40.30;;;;;;2541193;53;20959;-70
2023/06/25 10:56:27;;;;;;;4.03;1.73;;;31.00;40.30;;;;;;2540176;53;20948;-70
2023/06/25 10:58:55;;;;;;;3.25;1.73;;;31.10;40.40;;;;;;2542260;54;20931;-70
2023/06/25 11:01:24;;;;;;;2.87;1.60;;;31.10;40.20;;;;;;2319489;54;21965;-70
2023/06/25 11:03:51;;;;;;;2.92;1.77;;;31.10;40.30;;;;;;2538399;54;21028;-70
2023/06/25 11:06:18;;;;;;;3.28;1.95;;;31.20;40.10;;;;;;2288854;54;21018;-70
2023/06/25 11:08:45;;;;;;;2.75;1.70;;;31.30;40.00;;;;;;2515827;53;20982;-69
2023/06/25 11:11:12;;;;;;;2.97;1.87;;;31.30;39.80;;;;;;2526452;54;20947;-70
2023/06/25 11:13:38;;;;;;;3.15;2.00;;;31.30;39.80;;;;;;2528585;53;20994;-70
2023/06/25 11:16:10;;;;;;;3.72;1.87;;;31.40;39.80;;;;;;2538192;53;20934;-70
2023/06/25 11:18:50;;;;;;;2.85;1.45;;;31.40;39.40;;;;;;2289512;55;21065;-67
2023/06/25 11:21:17;;;;;;;3.20;1.60;;;31.50;38.90;;;;;;2552060;53;21560;-69
2023/06/25 11:23:44;;;;;;;3.12;2.00;;;31.60;39.30;;;;;;2530535;54;21014;-70
2023/06/25 11:26:13;;;;;;;3.17;1.87;;;31.60;39.30;;;;;;2545767;54;20966;-71
2023/06/25 11:28:41;;;;;;;3.00;1.65;;;31.60;39.00;;;;;;2538293;54;20966;-69
2023/06/25 11:31:12;;;;;;;3.05;1.77;;;31.70;39.00;;;;;;2300052;55;21438;-69
2023/06/25 11:33:39;;;;;;;3.28;2.20;;;31.70;38.70;;;;;;2535579;53;20951;-69
2023/06/25 11:36:44;;;;;;;4.18;2.10;;;31.80;38.90;;;;;;2531446;54;21013;-70
2023/06/25 11:39:11;;;;;;;2.80;1.62;;;31.80;38.20;;;;;;2559598;53;21508;-72
2023/06/25 11:41:40;;;;;;;3.00;1.60;;;31.90;38.60;;;;;;2557018;53;20921;-70
2023/06/25 11:44:21;;;;;;;3.00;1.70;;;31.90;38.40;;;;;;2313543;55;21561;-69
2023/06/25 11:46:51;;;;;;;3.17;2.03;;;32.00;38.10;;;;;;2307369;55;20934;-71
2023/06/25 11:49:18;;;;;;;2.95;1.75;;;32.00;38.50;;;;;;2515341;53;20975;-70
2023/06/25 11:51:55;;;;;;;3.35;1.77;;;32.10;38.30;;;;;;2554353;53;20939;-70
2023/06/25 11:54:24;;;;;;;3.20;1.98;;;32.10;38.10;;;;;;2529936;53;20953;-70
2023/06/25 11:56:52;;;;;;;3.10;1.90;;;32.10;38.00;;;;;;2523416;54;21419;-68
2023/06/25 11:59:19;;;;;;;3.53;1.85;;;32.20;37.60;;;;;;2522564;54;21005;-69
2023/06/25 12:01:45;;;;;;;3.05;2.00;;;32.30;37.50;;;;;;2515866;53;21025;-70
2023/06/25 12:04:12;;;;;;;3.65;1.85;;;32.30;37.50;;;;;;2522678;54;21015;-70
2023/06/25 12:06:39;;;;;;;3.35;1.98;;;32.30;37.30;;;;;;2260289;55;21465;-69
2023/06/25 12:09:06;;;;;;;3.15;1.80;;;32.30;37.20;;;;;;2301973;54;21031;-69
2023/06/25 12:11:37;;;;;;;3.10;1.90;;;32.40;37.30;;;;;;2541070;53;20935;-69
2023/06/25 12:14:04;;;;;;;2.97;1.70;;;32.50;37.00;;;;;;2539184;53;20966;-70
2023/06/25 12:16:30;;;;;;;2.67;1.65;;;32.50;37.00;;;;;;2267081;55;20958;-69
2023/06/25 12:18:59;;;;;;;2.70;1.60;;;32.60;36.80;;;;;;2527738;54;21014;-69
2023/06/25 12:21:26;;;;;;;2.58;1.55;;;32.60;36.80;;;;;;2488879;55;21097;-69
2023/06/25 12:23:54;;;;;;;3.00;1.67;;;32.70;36.80;;;;;;2317359;54;21013;-67
2023/06/25 12:26:21;;;;;;;2.87;1.75;;;32.70;36.70;;;;;;2538410;53;21014;-71
2023/06/25 12:28:50;;;;;;;3.00;1.77;;;32.80;36.70;;;;;;2534133;53;22860;-72
2023/06/25 12:31:18;;;;;;;3.00;1.60;;;32.80;36.50;;;;;;2540463;54;21467;-73
2023/06/25 12:33:46;;;;;;;2.80;1.70;;;32.80;36.40;;;;;;2555666;53;20951;-72
2023/06/25 12:36:14;;;;;;;3.33;2.10;;;32.90;36.40;;;;;;2541982;53;21396;-72
2023/06/25 12:38:42;;;;;;;3.67;1.85;;;32.90;36.00;;;;;;2519645;53;21502;-71
2023/06/25 12:41:09;;;;;;;3.12;1.80;;;33.00;35.90;;;;;;2493707;54;35811;-74
2023/06/25 12:43:46;;;;;;;3.12;1.90;;;33.00;35.80;;;;;;2275238;54;20937;-71
2023/06/25 12:46:24;;;;;;;3.60;2.15;;;33.10;35.20;;;;;;2506398;54;21885;-71
2023/06/25 12:48:52;;;;;;;2.85;1.62;;;33.10;35.60;;;;;;2505930;54;20986;-71
2023/06/25 12:51:21;;;;;;;2.75;1.67;;;33.10;35.50;;;;;;2530870;54;20945;-71
2023/06/25 12:53:48;;;;;;;2.70;1.60;;;33.20;35.60;;;;;;2543524;53;20961;-69
2023/06/25 12:56:15;;;;;;;3.45;1.80;;;33.30;35.60;;;;;;2543255;54;22142;-71
2023/06/25 12:58:49;;;;;;;2.83;1.80;;;33.30;35.40;;;;;;2305514;55;21410;-70
2023/06/25 13:01:16;;;;;;;3.40;2.35;;;33.30;35.20;;;;;;2542515;54;21029;-71
2023/06/25 13:03:44;;;;;;;3.50;2.30;;;33.30;35.20;;;;;;2543050;54;21052;-71
2023/06/25 13:06:13;;;;;;;3.28;1.98;;;33.40;36.10;;;;;;2541675;54;21319;-71
2023/06/25 13:08:40;;;;;;;3.42;1.90;;;33.40;35.30;;;;;;2543042;54;20941;-70
2023/06/25 13:11:06;;;;;;;2.80;1.70;;;33.50;35.20;;;;;;2305237;55;21404;-69
2023/06/25 13:13:33;;;;;;;2.70;1.70;;;33.60;35.20;;;;;;2304698;55;20937;-70
2023/06/25 13:16:03;;;;;;;3.05;1.75;;;33.60;35.00;;;;;;2541042;54;20950;-72
2023/06/25 13:18:32;;;;;;;3.12;1.70;;;33.60;34.90;;;;;;2515344;55;21003;-72
2023/06/25 13:20:59;;;;;;;3.08;1.73;;;33.60;35.10;;;;;;2515238;54;21050;-69
2023/06/25 13:23:26;;;;;;;2.75;1.65;;;33.70;35.00;;;;;;2504596;54;20959;-70
2023/06/25 13:25:52;;;;;;;3.00;1.75;;;33.70;34.80;;;;;;2507569;54;20964;-69
2023/06/25 13:28:20;;;;;;;2.60;1.50;;;33.80;34.70;;;;;;2289496;55;21074;-68
2023/06/25 13:30:49;;;;;;;2.83;1.75;;;33.80;34.50;;;;;;2531367;54;21018;-70
2023/06/25 13:33:16;;;;;;;3.25;1.98;;;33.80;35.10;;;;;;2535281;54;21549;-72
2023/06/25 13:35:43;;;;;;;3.20;1.90;;;33.80;34.80;;;;;;2530072;54;21470;-72
2023/06/25 13:38:10;;;;;;;3.83;2.42;;;33.80;34.60;;;;;;2511190;54;20938;-69
2023/06/25 13:40:38;;;;;;;3.00;1.70;;;33.90;34.20;;;;;;2281905;55;20990;-72
2023/06/25 13:43:04;;;;;;;2.62;1.67;;;33.90;34.00;;;;;;2496987;55;20950;-69
2023/06/25 13:45:34;;;;;;;2.78;1.67;;;33.90;34.00;;;;;;2278869;56;20946;-70
2023/06/25 13:48:02;;;;;;;3.05;1.75;;;34.00;34.40;;;;;;2554035;54;21301;-71
2023/06/25 13:50:32;;;;;;;3.17;1.87;;;34.00;33.90;;;;;;2547467;54;21455;-72
2023/06/25 13:53:01;;;;;;;3.33;1.90;;;34.00;34.50;;;;;;2520654;54;20979;-70
2023/06/25 13:55:28;;;;;;;2.67;1.50;;;34.10;33.60;;;;;;2553650;54;21475;-71
2023/06/25 13:57:56;;;;;;;2.60;1.58;;;34.10;33.60;;;;;;2312750;55;21069;-70
2023/06/25 14:00:22;;;;;;;2.97;1.70;;;34.10;33.60;;;;;;2312607;55;20950;-72
2023/06/25 14:02:49;;;;;;;2.75;1.48;;;34.10;33.50;;;;;;2552913;54;20931;-71
2023/06/25 14:05:19;;;;;;;3.28;1.85;;;34.10;33.20;;;;;;2300763;55;20966;-72
2023/06/25 14:07:45;;;;;;;2.87;1.65;;;34.20;33.30;;;;;;2302809;55;20958;-73
2023/06/25 14:10:11;;;;;;;3.00;1.83;;;34.20;33.10;;;;;;2313727;55;21022;-71
2023/06/25 14:12:38;;;;;;;2.97;1.83;;;34.20;33.00;;;;;;2310858;55;21021;-71
2023/06/25 14:15:04;;;;;;;3.37;1.90;;;34.20;33.10;;;;;;2293477;55;20942;-72
2023/06/25 14:17:31;;;;;;;4.07;2.08;;;34.30;32.90;;;;;;2313429;55;20930;-71
2023/06/25 14:19:57;;;;;;;3.10;1.60;;;34.30;32.70;;;;;;2313472;55;20990;-72
2023/06/25 14:22:23;;;;;;;3.80;1.77;;;34.30;32.80;;;;;;2533632;54;20942;-71
2023/06/25 14:24:54;;;;;;;2.80;1.67;;;34.30;32.80;;;;;;2542179;54;20942;-70
2023/06/25 14:27:22;;;;;;;3.22;1.70;;;34.30;32.90;;;;;;2313158;55;21006;-71
2023/06/25 14:29:48;;;;;;;3.10;1.73;;;34.40;32.70;;;;;;2313428;55;20954;-69
2023/06/25 14:32:15;;;;;;;2.87;1.45;;;34.40;32.80;;;;;;2312574;55;20994;-70
2023/06/25 14:34:42;;;;;;;3.80;1.73;;;34.40;32.80;;;;;;2313248;55;20930;-69
2023/06/25 14:37:09;;;;;;;2.95;1.73;;;34.40;32.70;;;;;;2313506;55;20990;-71
2023/06/25 14:39:35;;;;;;;3.20;1.58;;;34.40;32.50;;;;;;2552766;54;20953;-69
2023/06/25 14:42:04;;;;;;;2.83;1.60;;;34.40;32.50;;;;;;2552939;54;20990;-70
2023/06/25 14:44:30;;;;;;;3.47;1.80;;;34.50;32.70;;;;;;2553729;54;20986;-69
2023/06/25 14:46:57;;;;;;;3.05;1.62;;;34.50;32.50;;;;;;2553661;54;20942;-70
2023/06/25 14:49:23;;;;;;;3.12;1.90;;;34.50;32.40;;;;;;2313410;55;21033;-69
2023/06/25 14:51:51;;;;;;;3.33;1.73;;;34.60;32.40;;;;;;2314296;55;21022;-69
2023/06/25 14:54:18;;;;;;;3.75;1.60;;;34.60;32.60;;;;;;2313891;55;21277;-71
2023/06/25 14:56:45;;;;;;;3.00;2.00;;;34.60;32.50;;;;;;2553708;54;20951;-69
2023/06/25 14:59:11;;;;;;;2.83;1.60;;;34.60;32.30;;;;;;2553902;54;21704;-69
2023/06/25 15:01:37;;;;;;;2.50;1.37;;;34.70;32.20;;;;;;2312755;55;20994;-68
2023/06/25 15:04:06;;;;;;;2.85;1.50;;;34.70;32.20;;;;;;2553327;54;20939;-69
2023/06/25 15:06:32;;;;;;;3.15;1.70;;;34.70;32.10;;;;;;2554144;54;20938;-69
2023/06/25 15:09:01;;;;;;;4.55;1.92;;;34.70;31.90;;;;;;2312731;55;20946;-68
2023/06/25 15:11:27;;;;;;;2.90;1.80;;;34.70;31.60;;;;;;2554325;54;20959;-69
2023/06/25 15:13:57;;;;;;;3.60;1.65;;;34.70;31.50;;;;;;2550232;54;20943;-69
2023/06/25 15:16:23;;;;;;;3.33;2.12;;;34.70;31.40;;;;;;2552926;54;20931;-68
2023/06/25 15:18:49;;;;;;;3.33;1.70;;;34.70;31.20;;;;;;2552708;54;20987;-70
2023/06/25 15:21:16;;;;;;;2.72;1.70;;;34.70;31.40;;;;;;2310655;55;20965;-69
2023/06/25 15:23:43;;;;;;;3.72;1.83;;;34.70;31.40;;;;;;2553220;54;20930;-68
2023/06/25 15:26:12;;;;;;;2.90;1.62;;;34.70;31.30;;;;;;2313244;55;20962;-69
2023/06/25 15:28:42;;;;;;;2.85;1.55;;;34.70;31.20;;;;;;2292140;55;20963;-69
2023/06/25 15:31:11;;;;;;;3.17;1.77;;;34.70;31.10;;;;;;2281247;55;21102;-68
2023/06/25 15:33:38;;;;;;;2.83;1.62;;;34.70;31.20;;;;;;2505397;55;20956;-69
2023/06/25 15:36:04;;;;;;;2.45;1.52;;;34.70;31.20;;;;;;2281932;55;20951;-70
2023/06/25 15:38:31;;;;;;;2.90;1.55;;;34.70;31.10;;;;;;2303292;55;20950;-68
2023/06/25 15:40:57;;;;;;;2.62;1.50;;;34.70;31.10;;;;;;2304002;55;20957;-69
2023/06/25 15:43:25;;;;;;;2.97;1.73;;;34.70;31.10;;;;;;2542642;54;20941;-69
2023/06/25 15:45:52;;;;;;;3.05;1.50;;;34.70;31.00;;;;;;2304839;55;21540;-69
2023/06/25 15:48:18;;;;;;;2.70;1.67;;;34.70;31.00;;;;;;2304668;55;20914;-68
2023/06/25 15:50:45;;;;;;;2.62;1.50;;;34.70;31.00;;;;;;2542954;53;21019;-70
2023/06/25 15:53:14;;;;;;;3.00;1.73;;;34.70;31.00;;;;;;2542056;54;20965;-69
2023/06/25 15:55:42;;;;;;;3.40;1.70;;;34.70;30.90;;;;;;2305840;55;21561;-70
2023/06/25 15:58:08;;;;;;;2.83;1.62;;;34.70;30.90;;;;;;2302892;55;20940;-69
2023/06/25 16:00:37;;;;;;;2.80;1.67;;;34.60;30.70;;;;;;2305526;55;21017;-68
2023/06/25 16:03:05;;;;;;;3.92;1.90;;;34.60;30.60;;;;;;2303014;55;21851;-67
2023/06/25 16:05:31;;;;;;;2.97;1.60;;;34.60;30.60;;;;;;2304507;55;20937;-69
2023/06/25 16:07:57;;;;;;;3.03;1.62;;;34.60;30.60;;;;;;2304633;55;20990;-69
2023/06/25 16:10:24;;;;;;;3.33;1.92;;;34.60;30.40;;;;;;2304528;55;20937;-70
2023/06/25 16:12:50;;;;;;;2.65;1.55;;;34.60;30.40;;;;;;2542408;54;20946;-69
2023/06/25 16:15:17;;;;;;;3.00;1.90;;;34.60;30.60;;;;;;2541892;54;21768;-69
2023/06/25 16:17:43;;;;;;;3.05;1.70;;;34.60;30.60;;;;;;2542724;54;20957;-69
2023/06/25 16:20:12;;;;;;;3.15;1.85;;;34.50;30.50;;;;;;2543023;54;20910;-70
2023/06/25 16:22:39;;;;;;;3.95;1.60;;;34.50;30.40;;;;;;2304450;55;20934;-69
2023/06/25 16:25:05;;;;;;;3.05;1.67;;;34.50;30.30;;;;;;2306995;55;20958;-69
2023/06/25 16:27:41;;;;;;;2.75;1.60;;;34.50;30.30;;;;;;2288687;55;20925;-69
2023/06/25 16:30:10;;;;;;;3.85;1.80;;;34.50;30.00;;;;;;2296565;55;20941;-70
2023/06/25 16:32:37;;;;;;;2.80;1.52;;;34.50;30.30;;;;;;2542739;54;20941;-69
2023/06/25 16:35:04;;;;;;;3.05;1.80;;;34.50;30.50;;;;;;2307240;55;20982;-69
2023/06/25 16:37:32;;;;;;;2.75;1.27;;;34.40;30.40;;;;;;2289204;55;21466;-68
2023/06/25 16:39:58;;;;;;;2.90;1.40;;;34.40;30.40;;;;;;2529664;54;21506;-69
2023/06/25 16:42:26;;;;;;;3.20;1.70;;;34.40;30.30;;;;;;2542988;54;21716;-70
2023/06/25 16:44:52;;;;;;;2.87;1.73;;;34.40;30.20;;;;;;2543181;54;20922;-70
2023/06/25 16:47:18;;;;;;;2.92;1.55;;;34.40;30.10;;;;;;2541610;54;20997;-70
2023/06/25 16:49:46;;;;;;;2.40;1.33;;;34.40;30.30;;;;;;2305048;55;21065;-70
2023/06/25 16:52:12;;;;;;;2.75;1.77;;;34.50;30.20;;;;;;2541770;54;20977;-69
2023/06/25 16:54:39;;;;;;;3.20;1.90;;;34.40;30.20;;;;;;2542101;54;20934;-70
2023/06/25 16:57:06;;;;;;;2.50;1.50;;;34.40;30.10;;;;;;2304103;55;20981;-69
2023/06/25 16:59:33;;;;;;;2.85;1.70;;;34.40;30.10;;;;;;2304294;55;21025;-70
2023/06/25 17:02:05;;;;;;;2.75;1.65;;;34.40;30.00;;;;;;2304246;55;20997;-69
2023/06/25 17:04:33;;;;;;;2.83;1.60;;;34.40;30.10;;;;;;2542017;54;20961;-70
2023/06/25 17:06:59;;;;;;;2.92;1.52;;;34.40;30.20;;;;;;2542181;54;21057;-70
2023/06/25 17:09:27;;;;;;;3.75;1.65;;;34.40;30.30;;;;;;2302758;55;20985;-70
2023/06/25 17:11:54;;;;;;;2.72;1.45;;;34.40;30.40;;;;;;2519304;54;20993;-70
2023/06/25 17:14:22;;;;;;;2.85;1.70;;;34.40;30.30;;;;;;2304197;55;20940;-68
2023/06/25 17:16:48;;;;;;;2.75;1.65;;;34.40;30.30;;;;;;2542827;54;21033;-70
2023/06/25 17:19:15;;;;;;;3.03;1.70;;;34.40;30.10;;;;;;2542293;54;21403;-68
2023/06/25 17:21:42;;;;;;;3.03;1.50;;;34.40;30.20;;;;;;2542838;54;20937;-73
2023/06/25 17:24:08;;;;;;;2.72;1.70;;;34.40;30.10;;;;;;2305066;55;20930;-69
2023/06/25 17:26:37;;;;;;;2.97;1.60;;;34.40;30.20;;;;;;2542670;54;20921;-68
2023/06/25 17:29:04;;;;;;;2.90;1.60;;;34.40;30.20;;;;;;2304657;55;21022;-71
2023/06/25 17:31:31;;;;;;;3.22;1.65;;;34.40;30.40;;;;;;2303238;55;20950;-68
2023/06/25 17:33:59;;;;;;;3.60;1.70;;;34.40;30.50;;;;;;2542433;54;20934;-71
2023/06/25 17:36:28;;;;;;;4.80;1.77;;;34.50;30.70;;;;;;2516013;54;20952;-70
2023/06/25 17:38:57;;;;;;;2.90;1.60;;;34.50;30.90;;;;;;2298788;55;20944;-68
2023/06/25 17:41:24;;;;;;;2.75;1.50;;;34.50;31.60;;;;;;2542700;53;20937;-69
2023/06/25 17:43:50;;;;;;;3.28;1.52;;;34.60;31.20;;;;;;2537602;54;21819;-72
2023/06/25 17:46:17;;;;;;;2.95;1.62;;;34.70;31.40;;;;;;2542224;54;20978;-69
2023/06/25 17:48:43;;;;;;;2.65;1.42;;;34.80;31.40;;;;;;2542503;54;20997;-69
2023/06/25 17:51:11;;;;;;;2.80;1.40;;;34.90;31.50;;;;;;2304529;55;20972;-70
2023/06/25 17:53:37;;;;;;;2.67;1.55;;;35.10;31.50;;;;;;2542252;54;20921;-69
2023/06/25 17:56:05;;;;;;;3.20;1.73;;;35.30;31.70;;;;;;2307931;55;20945;-69
2023/06/25 17:58:31;;;;;;;2.60;1.48;;;35.50;31.60;;;;;;2300248;55;20890;-68
2023/06/25 18:01:07;;;;;;;2.83;1.62;;;35.80;31.80;;;;;;2304646;55;20961;-69
2023/06/25 18:03:33;;;;;;;3.50;1.90;;;36.10;31.10;;;;;;2304241;55;20965;-69
2023/06/25 18:06:00;;;;;;;2.95;1.80;;;36.40;31.40;;;;;;2542468;54;20953;-72
2023/06/25 18:08:26;;;;;;;2.92;1.50;;;36.60;31.20;;;;;;2542832;54;21548;-68
2023/06/25 18:10:52;;;;;;;2.87;1.50;;;36.90;31.10;;;;;;2543234;54;20954;-70
2023/06/25 18:13:19;;;;;;;2.53;1.30;;;37.20;30.70;;;;;;2304852;55;21000;-70
2023/06/25 18:15:45;;;;;;;2.65;1.58;;;37.40;30.60;;;;;;2542835;54;20994;-70
2023/06/25 18:18:30;;;;;;;2.65;1.50;;;37.70;30.50;;;;;;2304666;55;21029;-72
2023/06/25 18:20:56;;;;;;;2.83;1.52;;;38.00;30.60;;;;;;2542435;54;20937;-69
2023/06/25 18:23:25;;;;;;;3.33;1.48;;;38.20;30.40;;;;;;2304710;55;21028;-69
2023/06/25 18:25:52;;;;;;;2.67;1.37;;;38.40;30.10;;;;;;2521095;54;21802;-69
2023/06/25 18:28:18;;;;;;;2.50;1.40;;;38.50;29.80;;;;;;2528261;54;21702;-69
2023/06/25 18:30:44;;;;;;;2.55;1.35;;;38.60;29.70;;;;;;2296207;55;20926;-70
2023/06/25 18:33:11;;;;;;;2.70;1.50;;;38.70;29.50;;;;;;2295212;55;21006;-69
2023/06/25 18:35:39;;;;;;;2.70;1.62;;;38.80;29.20;;;;;;2530641;54;21037;-69
2023/06/25 18:38:05;;;;;;;3.12;1.80;;;38.80;29.10;;;;;;2278360;54;20946;-69
2023/06/25 18:40:32;;;;;;;2.90;1.77;;;38.80;29.00;;;;;;2281991;55;21615;-69
2023/06/25 18:42:59;;;;;;;2.58;1.50;;;38.80;28.90;;;;;;2513814;55;20974;-70
2023/06/25 18:45:25;;;;;;;2.75;1.60;;;38.70;28.80;;;;;;2282364;55;20918;-71
2023/06/25 18:47:51;;;;;;;2.78;1.70;;;38.60;28.70;;;;;;2510552;55;21024;-69
2023/06/25 18:50:20;;;;;;;3.05;1.62;;;38.50;28.70;;;;;;2277346;55;20949;-71
2023/06/25 18:52:46;;;;;;;2.58;1.48;;;38.40;28.70;;;;;;2514974;55;21036;-70
2023/06/25 18:55:13;;;;;;;2.92;1.55;;;38.30;28.70;;;;;;2287918;54;21455;-67
2023/06/25 18:57:39;;;;;;;3.15;1.98;;;38.20;28.80;;;;;;2299462;55;21847;-71
2023/06/25 19:00:06;;;;;;;2.70;1.33;;;38.00;28.90;;;;;;2256222;55;21963;-69
2023/06/25 19:02:34;;;;;;;2.92;1.52;;;37.80;29.00;;;;;;2516095;54;20940;-72
2023/06/25 19:05:00;;;;;;;3.40;1.65;;;37.70;29.00;;;;;;2503970;55;21759;-69
2023/06/25 19:07:27;;;;;;;2.55;1.45;;;37.50;29.20;;;;;;2490171;55;20942;-69
2023/06/25 19:09:54;;;;;;;2.80;1.60;;;37.30;29.30;;;;;;2481124;55;21046;-71
2023/06/25 19:12:23;;;;;;;2.95;1.62;;;37.10;29.40;;;;;;2258761;55;21053;-70
2023/06/25 19:14:50;;;;;;;2.70;1.60;;;36.90;29.50;;;;;;2495183;54;20909;-69
2023/06/25 19:17:17;;;;;;;2.85;1.52;;;36.70;29.60;;;;;;2279556;56;21041;-68
2023/06/25 19:19:50;;;;;;;3.37;2.08;;;36.50;29.70;;;;;;2282123;56;20947;-69
2023/06/25 19:22:16;;;;;;;2.62;1.50;;;36.30;29.70;;;;;;2281619;56;21473;-71
2023/06/25 19:24:43;;;;;;;3.15;1.55;;;36.10;29.70;;;;;;2528542;54;20987;-69
2023/06/25 19:27:09;;;;;;;3.00;1.80;;;35.90;29.70;;;;;;2515943;55;21014;-71
2023/06/25 19:29:37;;;;;;;2.72;1.60;;;35.70;29.70;;;;;;2522926;54;21555;-70
2023/06/25 19:32:04;;;;;;;3.22;1.83;;;35.40;29.70;;;;;;2533531;54;20967;-71
2023/06/25 19:34:32;;;;;;;2.90;1.60;;;35.20;29.80;;;;;;2513787;55;21086;-69
2023/06/25 19:37:00;;;;;;;3.12;1.80;;;35.00;29.80;;;;;;2515071;54;20954;-70
2023/06/25 19:39:26;;;;;;;3.58;1.80;;;34.70;29.80;;;;;;2516616;54;20915;-69
2023/06/25 19:41:53;;;;;;;2.83;1.60;;;34.50;29.90;;;;;;2520179;54;20932;-69
2023/06/25 19:44:19;;;;;;;3.10;1.62;;;34.30;30.00;;;;;;2548329;54;20984;-69
2023/06/25 19:46:46;;;;;;;3.50;1.87;;;34.10;30.00;;;;;;2499238;54;21070;-69
2023/06/25 19:49:12;;;;;;;2.87;1.67;;;33.90;30.10;;;;;;2290356;55;21479;-69
2023/06/25 19:51:39;;;;;;;3.42;1.73;;;33.70;30.10;;;;;;2515359;55;21105;-68
2023/06/25 19:54:05;;;;;;;4.78;2.03;;;33.40;30.20;;;;;;2282472;54;21940;-70
2023/06/25 19:56:31;;;;;;;3.28;1.70;;;33.20;30.30;;;;;;2277038;55;20946;-70
2023/06/25 19:58:59;;;;;;;3.08;1.75;;;33.00;30.40;;;;;;2520551;54;20979;-68
2023/06/25 20:01:26;;;;;;;3.00;1.70;;;32.80;30.50;;;;;;2522500;54;21069;-69
2023/06/25 20:03:52;;;;;;;3.30;1.92;;;32.60;30.60;;;;;;2514930;55;21391;-69
2023/06/25 20:06:20;;;;;;;3.03;1.62;;;32.40;30.80;;;;;;2282760;56;20966;-67
2023/06/25 20:08:46;;;;;;;3.17;1.83;;;32.30;31.00;;;;;;2286114;56;21428;-70
2023/06/25 20:11:14;;;;;;;3.20;1.83;;;32.10;31.00;;;;;;2301172;55;20959;-71
2023/06/25 20:13:40;;;;;;;3.33;1.77;;;31.90;31.10;;;;;;2282768;55;21006;-70
2023/06/25 20:16:07;;;;;;;3.05;1.75;;;31.70;31.20;;;;;;2513332;55;21006;-71
2023/06/25 20:18:39;;;;;;;3.15;1.70;;;31.60;31.30;;;;;;2482639;55;20940;-70
2023/06/25 20:21:06;;;;;;;3.47;1.95;;;31.40;31.30;;;;;;2281662;56;21058;-70
2023/06/25 20:23:33;;;;;;;3.03;1.62;;;31.20;31.50;;;;;;2514866;55;21466;-70
2023/06/25 20:26:00;;;;;;;3.55;1.98;;;31.10;31.60;;;;;;2293054;55;21012;-69
2023/06/25 20:28:30;;;;;;;3.33;1.90;;;30.90;31.60;;;;;;2282511;55;20974;-70
2023/06/25 20:30:56;;;;;;;3.22;2.03;;;30.70;31.70;;;;;;2515035;55;20990;-68
2023/06/25 20:33:24;;;;;;;3.15;1.62;;;30.60;31.80;;;;;;2282189;55;20957;-70
2023/06/25 20:35:50;;;;;;;3.28;1.80;;;30.40;31.90;;;;;;2276450;55;20998;-69
2023/06/25 20:38:17;;;;;;;3.53;1.92;;;30.30;32.10;;;;;;2282492;55;20970;-69
2023/06/25 20:40:44;;;;;;;3.80;2.30;;;30.10;32.20;;;;;;2271489;56;20961;-69
2023/06/25 20:43:11;;;;;;;3.47;1.95;;;30.00;32.30;;;;;;2500228;55;20958;-69
2023/06/25 20:45:40;;;;;;;3.95;2.20;;;29.80;32.40;;;;;;2529602;54;20975;-71
2023/06/25 20:48:09;;;;;;;3.10;1.70;;;29.70;32.60;;;;;;2301620;55;20987;-69
2023/06/25 20:50:36;;;;;;;3.67;1.98;;;29.60;32.70;;;;;;2281864;56;21444;-70
2023/06/25 20:53:02;;;;;;;3.28;1.98;;;29.40;32.70;;;;;;2542172;54;20960;-70
2023/06/25 20:55:29;;;;;;;3.53;2.05;;;29.30;32.80;;;;;;2257784;56;20975;-70
2023/06/25 20:57:59;;;;;;;3.33;1.95;;;29.20;32.90;;;;;;2281663;55;20982;-69
2023/06/25 21:00:26;;;;;;;3.22;2.00;;;29.00;33.00;;;;;;2506410;55;21558;-69
2023/06/25 21:02:55;;;;;;;3.42;1.95;;;28.90;33.10;;;;;;2519560;54;21505;-70
2023/06/25 21:05:22;;;;;;;4.28;2.10;;;28.80;33.30;;;;;;2522956;54;21390;-70
2023/06/25 21:07:48;;;;;;;3.20;1.52;;;28.70;33.60;;;;;;2290501;55;20944;-69
2023/06/25 21:10:16;;;;;;;3.30;2.00;;;28.60;33.70;;;;;;2513382;54;20969;-69
2023/06/25 21:12:42;;;;;;;3.58;1.92;;;28.50;33.90;;;;;;2491858;55;21625;-69
2023/06/25 21:15:08;;;;;;;3.90;1.80;;;28.40;34.00;;;;;;2282684;55;20962;-70
2023/06/25 21:17:36;;;;;;;3.17;1.80;;;28.30;34.20;;;;;;2282205;55;20966;-67
2023/06/25 21:20:05;;;;;;;3.60;2.10;;;28.20;34.30;;;;;;2515682;55;20998;-70
2023/06/25 21:22:33;;;;;;;3.70;2.20;;;28.10;34.50;;;;;;2514521;55;20954;-69
2023/06/25 21:24:59;;;;;;;3.80;2.05;;;28.00;34.60;;;;;;2540862;54;20956;-71
2023/06/25 21:27:26;;;;;;;3.50;2.10;;;27.90;34.80;;;;;;2288096;55;20925;-69
2023/06/25 21:29:52;;;;;;;4.18;2.10;;;27.80;35.00;;;;;;2492010;55;21618;-68
2023/06/25 21:32:18;;;;;;;3.05;1.75;;;27.70;35.10;;;;;;2503374;54;20962;-68